Sibel J — 5IM270 — position and weather

sailwx.info

Track history (hours):
 
Tides and Currents Weather Stations Pressure Air Temp Water Temp Dewpoint Dewpoint Depression Visibility Wind Speed Wind Dir Waves Ship Positions

Sibel J

Last reported at 2014-Jul-19 11:30 UTC. Time now 2014-Aug-02 04:32 UTC.
Position N 40°47' E 028°57'.
Warning: this ship's position is 13 days out of date.

Length 100 m; draft 4.6 m.

Type: Cargo ship. MMSI: 677017000.

Date/timePositionNaut miles runAvg speedWind from/ knotsBaromVisibWave heightAir tempDewpointWater temp
2014-Jul-19 11:30N 40°47' E 028°57'123 8.0
2014-Jul-18 20:08N 40°10' E 026°24'25 6.7
2014-Jul-18 16:28N 39°55' E 025°57'7 7.7
2014-Jul-18 15:32N 39°51' E 025°50'8 7.6
2014-Jul-18 14:33N 39°46' E 025°42'  
2014-Jul-14 15:12N 39°13' E 024°44'61 9.2
2014-Jul-14 08:32N 39°37' E 025°56'6 2.3
2014-Jul-14 06:09N 39°37' E 026°03'6 8.5
2014-Jul-14 05:31N 39°32' E 026°02'  
2014-Jul-11 18:07N 39°50' E 026°05'5 9.1
2014-Jul-11 17:33N 39°55' E 026°07'8 8.2
2014-Jul-11 16:33N 40°02' E 026°12'11 8.5
2014-Jul-11 15:13N 40°10' E 026°23'140 7.1
2014-Jul-10 19:26N 41°24' E 028°59'3 3.7
2014-Jul-10 18:33N 41°26' E 028°56'255295.7
2014-Jul-10 18:33N 41°24' E 029°30'2522.6
2014-Jul-10 17:27N 41°26' E 028°57'0 0.4
2014-Jul-10 16:33N 41°26' E 028°57'1 0.5
2014-Jul-10 15:30N 41°25' E 028°58'1 0.5
2014-Jul-10 14:27N 41°25' E 028°58'0 0.5
2014-Jul-10 13:33N 41°25' E 028°59'1 0.5
2014-Jul-10 12:33N 41°25' E 028°59'  
Track history (hours):
 
Tides and Currents Weather Stations Pressure Air Temp Water Temp Dewpoint Dewpoint Depression Visibility Wind Speed Wind Dir Waves Ship Positions

Sibel J

Last reported at 2014-Jul-19 11:30 UTC. Time now 2014-Aug-02 04:32 UTC.
Position N 40°47' E 028°57'.
Warning: this ship's position is 13 days out of date.

Length 100 m; draft 4.6 m.

Type: Cargo ship. MMSI: 677017000.

Date/timePositionNaut miles runAvg speedWind from/ knotsBaromVisibWave heightAir tempDewpointWater temp
2014-Jul-19 11:30N 40°47' E 028°57'123 8.0
2014-Jul-18 20:08N 40°10' E 026°24'25 6.7
2014-Jul-18 16:28N 39°55' E 025°57'7 7.7
2014-Jul-18 15:32N 39°51' E 025°50'8 7.6
2014-Jul-18 14:33N 39°46' E 025°42'  
2014-Jul-14 15:12N 39°13' E 024°44'61 9.2
2014-Jul-14 08:32N 39°37' E 025°56'6 2.3
2014-Jul-14 06:09N 39°37' E 026°03'6 8.5
2014-Jul-14 05:31N 39°32' E 026°02'  
2014-Jul-11 18:07N 39°50' E 026°05'5 9.1
2014-Jul-11 17:33N 39°55' E 026°07'8 8.2
2014-Jul-11 16:33N 40°02' E 026°12'11 8.5
2014-Jul-11 15:13N 40°10' E 026°23'140 7.1
2014-Jul-10 19:26N 41°24' E 028°59'3 3.7
2014-Jul-10 18:33N 41°26' E 028°56'255295.7
2014-Jul-10 18:33N 41°24' E 029°30'2522.6
2014-Jul-10 17:27N 41°26' E 028°57'0 0.4
2014-Jul-10 16:33N 41°26' E 028°57'1 0.5
2014-Jul-10 15:30N 41°25' E 028°58'1 0.5
2014-Jul-10 14:27N 41°25' E 028°58'0 0.5
2014-Jul-10 13:33N 41°25' E 028°59'1 0.5
2014-Jul-10 12:33N 41°25' E 028°59'  

Dump ship's entire track history